sensor_id;sensor_type;location;lat;lon;timestamp;P1;durP1;ratioP1;P2;durP2;ratioP2
1721;SDS011;858;53.190;8.596;2023-07-09T00:02:05;8.17;;;6.83;;
1721;SDS011;858;53.190;8.596;2023-07-09T00:04:32;8.07;;;7.23;;
1721;SDS011;858;53.190;8.596;2023-07-09T00:07:01;11.70;;;8.13;;
1721;SDS011;858;53.190;8.596;2023-07-09T00:09:28;8.70;;;7.90;;
1721;SDS011;858;53.190;8.596;2023-07-09T00:11:54;10.23;;;8.50;;
1721;SDS011;858;53.190;8.596;2023-07-09T00:14:23;8.90;;;8.00;;
1721;SDS011;858;53.190;8.596;2023-07-09T00:16:50;8.83;;;7.93;;
1721;SDS011;858;53.190;8.596;2023-07-09T00:19:17;9.77;;;7.83;;
1721;SDS011;858;53.190;8.596;2023-07-09T00:21:44;9.40;;;7.80;;
1721;SDS011;858;53.190;8.596;2023-07-09T00:24:12;8.17;;;7.57;;
1721;SDS011;858;53.190;8.596;2023-07-09T00:26:39;10.67;;;7.90;;
1721;SDS011;858;53.190;8.596;2023-07-09T00:29:07;12.20;;;7.70;;
1721;SDS011;858;53.190;8.596;2023-07-09T00:31:34;9.63;;;8.73;;
1721;SDS011;858;53.190;8.596;2023-07-09T00:34:03;10.63;;;8.43;;
1721;SDS011;858;53.190;8.596;2023-07-09T00:36:31;11.50;;;8.97;;
1721;SDS011;858;53.190;8.596;2023-07-09T00:38:57;12.63;;;8.57;;
1721;SDS011;858;53.190;8.596;2023-07-09T00:41:31;10.00;;;7.80;;
1721;SDS011;858;53.190;8.596;2023-07-09T00:43:58;8.80;;;8.00;;
1721;SDS011;858;53.190;8.596;2023-07-09T00:49:11;8.97;;;7.97;;
1721;SDS011;858;53.190;8.596;2023-07-09T00:51:42;9.13;;;8.23;;
1721;SDS011;858;53.190;8.596;2023-07-09T00:54:11;9.00;;;8.10;;
1721;SDS011;858;53.190;8.596;2023-07-09T00:56:42;9.23;;;8.43;;
1721;SDS011;858;53.190;8.596;2023-07-09T00:59:12;9.77;;;8.40;;
1721;SDS011;858;53.190;8.596;2023-07-09T01:01:42;9.03;;;8.23;;
1721;SDS011;858;53.190;8.596;2023-07-09T01:04:08;10.70;;;8.80;;
1721;SDS011;858;53.190;8.596;2023-07-09T01:06:37;10.07;;;8.80;;
1721;SDS011;858;53.190;8.596;2023-07-09T01:09:05;10.20;;;8.63;;
1721;SDS011;858;53.190;8.596;2023-07-09T01:11:33;9.90;;;8.23;;
1721;SDS011;858;53.190;8.596;2023-07-09T01:14:01;10.50;;;9.50;;
1721;SDS011;858;53.190;8.596;2023-07-09T01:16:30;8.60;;;7.83;;
1721;SDS011;858;53.190;8.596;2023-07-09T01:18:57;10.83;;;9.07;;
1721;SDS011;858;53.190;8.596;2023-07-09T01:21:27;10.07;;;9.00;;
1721;SDS011;858;53.190;8.596;2023-07-09T01:23:53;11.13;;;9.23;;
1721;SDS011;858;53.190;8.596;2023-07-09T01:26:20;10.03;;;9.23;;
1721;SDS011;858;53.190;8.596;2023-07-09T01:28:49;9.57;;;8.77;;
1721;SDS011;858;53.190;8.596;2023-07-09T01:31:16;9.90;;;8.80;;
1721;SDS011;858;53.190;8.596;2023-07-09T01:33:44;10.13;;;9.00;;
1721;SDS011;858;53.190;8.596;2023-07-09T01:36:12;10.40;;;9.40;;
1721;SDS011;858;53.190;8.596;2023-07-09T01:38:40;11.80;;;8.50;;
1721;SDS011;858;53.190;8.596;2023-07-09T01:41:06;9.67;;;8.83;;
1721;SDS011;858;53.190;8.596;2023-07-09T01:43:33;10.50;;;9.33;;
1721;SDS011;858;53.190;8.596;2023-07-09T01:46:00;10.07;;;9.03;;
1721;SDS011;858;53.190;8.596;2023-07-09T01:48:26;9.93;;;9.03;;
1721;SDS011;858;53.190;8.596;2023-07-09T01:50:53;10.33;;;9.23;;
1721;SDS011;858;53.190;8.596;2023-07-09T01:53:21;10.37;;;9.47;;
1721;SDS011;858;53.190;8.596;2023-07-09T01:55:50;9.73;;;8.73;;
1721;SDS011;858;53.190;8.596;2023-07-09T01:58:17;9.20;;;8.40;;
1721;SDS011;858;53.190;8.596;2023-07-09T02:00:43;10.40;;;9.50;;
1721;SDS011;858;53.190;8.596;2023-07-09T02:03:10;9.53;;;8.73;;
1721;SDS011;858;53.190;8.596;2023-07-09T02:05:36;11.57;;;10.20;;
1721;SDS011;858;53.190;8.596;2023-07-09T02:08:05;9.47;;;8.67;;
1721;SDS011;858;53.190;8.596;2023-07-09T02:10:31;10.43;;;9.43;;
1721;SDS011;858;53.190;8.596;2023-07-09T02:12:59;10.40;;;9.10;;
1721;SDS011;858;53.190;8.596;2023-07-09T02:15:25;9.90;;;9.10;;
1721;SDS011;858;53.190;8.596;2023-07-09T02:17:52;12.00;;;9.10;;
1721;SDS011;858;53.190;8.596;2023-07-09T02:20:18;9.83;;;8.90;;
1721;SDS011;858;53.190;8.596;2023-07-09T02:22:45;10.37;;;9.37;;
1721;SDS011;858;53.190;8.596;2023-07-09T02:25:11;10.07;;;9.27;;
1721;SDS011;858;53.190;8.596;2023-07-09T02:27:38;10.83;;;9.70;;
1721;SDS011;858;53.190;8.596;2023-07-09T02:30:08;10.13;;;9.33;;
1721;SDS011;858;53.190;8.596;2023-07-09T02:32:36;10.73;;;9.73;;
1721;SDS011;858;53.190;8.596;2023-07-09T02:35:02;9.50;;;8.70;;
1721;SDS011;858;53.190;8.596;2023-07-09T02:37:29;12.17;;;9.90;;
1721;SDS011;858;53.190;8.596;2023-07-09T02:39:55;10.63;;;9.73;;
1721;SDS011;858;53.190;8.596;2023-07-09T02:42:24;11.43;;;10.27;;
1721;SDS011;858;53.190;8.596;2023-07-09T02:44:50;10.40;;;9.40;;
1721;SDS011;858;53.190;8.596;2023-07-09T02:47:18;10.70;;;9.70;;
1721;SDS011;858;53.190;8.596;2023-07-09T02:49:45;11.67;;;10.10;;
1721;SDS011;858;53.190;8.596;2023-07-09T02:52:11;11.40;;;10.40;;
1721;SDS011;858;53.190;8.596;2023-07-09T02:54:37;11.17;;;10.03;;
1721;SDS011;858;53.190;8.596;2023-07-09T02:57:04;11.43;;;10.33;;
1721;SDS011;858;53.190;8.596;2023-07-09T02:59:30;10.83;;;9.77;;
1721;SDS011;858;53.190;8.596;2023-07-09T03:01:59;10.13;;;9.23;;
1721;SDS011;858;53.190;8.596;2023-07-09T03:04:27;11.70;;;10.70;;
1721;SDS011;858;53.190;8.596;2023-07-09T03:06:53;11.50;;;10.50;;
1721;SDS011;858;53.190;8.596;2023-07-09T03:09:20;11.30;;;10.07;;
1721;SDS011;858;53.190;8.596;2023-07-09T03:11:49;12.43;;;9.93;;
1721;SDS011;858;53.190;8.596;2023-07-09T03:14:16;11.43;;;10.43;;
1721;SDS011;858;53.190;8.596;2023-07-09T03:16:42;10.50;;;9.40;;
1721;SDS011;858;53.190;8.596;2023-07-09T03:19:09;10.93;;;9.90;;
1721;SDS011;858;53.190;8.596;2023-07-09T03:21:37;17.43;;;11.27;;
1721;SDS011;858;53.190;8.596;2023-07-09T03:24:04;9.47;;;8.40;;
1721;SDS011;858;53.190;8.596;2023-07-09T03:26:30;13.30;;;10.53;;
1721;SDS011;858;53.190;8.596;2023-07-09T03:28:57;9.73;;;8.87;;
1721;SDS011;858;53.190;8.596;2023-07-09T03:31:23;15.97;;;9.73;;
1721;SDS011;858;53.190;8.596;2023-07-09T03:33:51;12.13;;;10.10;;
1721;SDS011;858;53.190;8.596;2023-07-09T03:36:18;11.50;;;10.40;;
1721;SDS011;858;53.190;8.596;2023-07-09T03:38:46;10.53;;;9.33;;
1721;SDS011;858;53.190;8.596;2023-07-09T03:41:12;10.47;;;9.40;;
1721;SDS011;858;53.190;8.596;2023-07-09T03:43:39;11.77;;;10.63;;
1721;SDS011;858;53.190;8.596;2023-07-09T03:46:05;10.20;;;8.83;;
1721;SDS011;858;53.190;8.596;2023-07-09T03:48:31;11.40;;;10.40;;
1721;SDS011;858;53.190;8.596;2023-07-09T03:50:58;11.57;;;10.43;;
1721;SDS011;858;53.190;8.596;2023-07-09T03:53:25;13.80;;;11.17;;
1721;SDS011;858;53.190;8.596;2023-07-09T03:55:54;10.70;;;9.43;;
1721;SDS011;858;53.190;8.596;2023-07-09T03:58:21;11.30;;;10.20;;
1721;SDS011;858;53.190;8.596;2023-07-09T04:00:48;11.43;;;10.30;;
1721;SDS011;858;53.190;8.596;2023-07-09T04:03:15;10.47;;;9.53;;
1721;SDS011;858;53.190;8.596;2023-07-09T04:05:41;11.03;;;10.03;;
1721;SDS011;858;53.190;8.596;2023-07-09T04:08:07;11.07;;;10.03;;
1721;SDS011;858;53.190;8.596;2023-07-09T04:10:34;11.23;;;10.33;;
1721;SDS011;858;53.190;8.596;2023-07-09T04:13:02;11.37;;;10.27;;
1721;SDS011;858;53.190;8.596;2023-07-09T04:15:28;9.70;;;8.90;;
1721;SDS011;858;53.190;8.596;2023-07-09T04:17:55;10.90;;;9.80;;
1721;SDS011;858;53.190;8.596;2023-07-09T04:20:21;11.77;;;10.67;;
1721;SDS011;858;53.190;8.596;2023-07-09T04:22:48;9.97;;;8.97;;
1721;SDS011;858;53.190;8.596;2023-07-09T04:25:15;10.60;;;9.50;;
1721;SDS011;858;53.190;8.596;2023-07-09T04:27:42;11.37;;;10.20;;
1721;SDS011;858;53.190;8.596;2023-07-09T04:30:10;11.73;;;10.67;;
1721;SDS011;858;53.190;8.596;2023-07-09T04:32:37;11.10;;;10.10;;
1721;SDS011;858;53.190;8.596;2023-07-09T04:35:03;10.70;;;9.70;;
1721;SDS011;858;53.190;8.596;2023-07-09T04:37:31;11.03;;;10.13;;
1721;SDS011;858;53.190;8.596;2023-07-09T04:39:58;11.10;;;9.67;;
1721;SDS011;858;53.190;8.596;2023-07-09T04:42:24;11.17;;;10.27;;
1721;SDS011;858;53.190;8.596;2023-07-09T04:44:50;11.47;;;10.37;;
1721;SDS011;858;53.190;8.596;2023-07-09T04:47:18;11.27;;;10.27;;
1721;SDS011;858;53.190;8.596;2023-07-09T04:49:45;11.57;;;10.47;;
1721;SDS011;858;53.190;8.596;2023-07-09T04:52:11;11.37;;;9.90;;
1721;SDS011;858;53.190;8.596;2023-07-09T04:54:40;11.33;;;10.37;;
1721;SDS011;858;53.190;8.596;2023-07-09T04:57:09;10.33;;;9.40;;
1721;SDS011;858;53.190;8.596;2023-07-09T04:59:35;10.87;;;9.83;;
1721;SDS011;858;53.190;8.596;2023-07-09T05:02:02;13.97;;;10.03;;
1721;SDS011;858;53.190;8.596;2023-07-09T05:04:30;11.83;;;10.83;;
1721;SDS011;858;53.190;8.596;2023-07-09T05:06:58;10.37;;;9.50;;
1721;SDS011;858;53.190;8.596;2023-07-09T05:09:24;16.80;;;10.20;;
1721;SDS011;858;53.190;8.596;2023-07-09T05:11:51;10.30;;;9.37;;
1721;SDS011;858;53.190;8.596;2023-07-09T05:14:18;10.87;;;9.80;;
1721;SDS011;858;53.190;8.596;2023-07-09T05:16:44;19.43;;;10.50;;
1721;SDS011;858;53.190;8.596;2023-07-09T05:19:11;10.50;;;9.60;;
1721;SDS011;858;53.190;8.596;2023-07-09T05:21:39;11.77;;;10.57;;
1721;SDS011;858;53.190;8.596;2023-07-09T05:24:06;11.50;;;10.50;;
1721;SDS011;858;53.190;8.596;2023-07-09T05:26:34;11.03;;;9.93;;
1721;SDS011;858;53.190;8.596;2023-07-09T05:29:02;12.60;;;10.10;;
1721;SDS011;858;53.190;8.596;2023-07-09T05:31:29;11.00;;;10.00;;
1721;SDS011;858;53.190;8.596;2023-07-09T05:33:55;10.93;;;10.00;;
1721;SDS011;858;53.190;8.596;2023-07-09T05:36:21;10.13;;;9.13;;
1721;SDS011;858;53.190;8.596;2023-07-09T05:38:49;10.10;;;9.20;;
1721;SDS011;858;53.190;8.596;2023-07-09T05:41:16;11.07;;;10.07;;
1721;SDS011;858;53.190;8.596;2023-07-09T05:43:42;12.40;;;10.50;;
1721;SDS011;858;53.190;8.596;2023-07-09T05:46:09;10.73;;;9.30;;
1721;SDS011;858;53.190;8.596;2023-07-09T05:48:36;8.97;;;8.20;;
1721;SDS011;858;53.190;8.596;2023-07-09T05:51:02;10.63;;;9.73;;
1721;SDS011;858;53.190;8.596;2023-07-09T05:53:29;11.30;;;9.30;;
1721;SDS011;858;53.190;8.596;2023-07-09T05:55:58;10.80;;;9.80;;
1721;SDS011;858;53.190;8.596;2023-07-09T05:58:25;10.60;;;9.13;;
1721;SDS011;858;53.190;8.596;2023-07-09T06:00:52;10.73;;;9.73;;
1721;SDS011;858;53.190;8.596;2023-07-09T06:03:21;10.20;;;9.20;;
1721;SDS011;858;53.190;8.596;2023-07-09T06:05:47;10.80;;;9.80;;
1721;SDS011;858;53.190;8.596;2023-07-09T06:08:17;11.13;;;10.03;;
1721;SDS011;858;53.190;8.596;2023-07-09T06:10:50;10.20;;;9.13;;
1721;SDS011;858;53.190;8.596;2023-07-09T06:13:18;13.57;;;11.37;;
1721;SDS011;858;53.190;8.596;2023-07-09T06:15:46;12.23;;;11.03;;
1721;SDS011;858;53.190;8.596;2023-07-09T06:18:12;12.73;;;11.13;;
1721;SDS011;858;53.190;8.596;2023-07-09T06:20:39;12.97;;;11.67;;
1721;SDS011;858;53.190;8.596;2023-07-09T06:23:05;12.97;;;11.53;;
1721;SDS011;858;53.190;8.596;2023-07-09T06:25:32;12.40;;;11.17;;
1721;SDS011;858;53.190;8.596;2023-07-09T06:27:58;12.00;;;10.90;;
1721;SDS011;858;53.190;8.596;2023-07-09T06:30:26;11.33;;;10.27;;
1721;SDS011;858;53.190;8.596;2023-07-09T06:32:53;11.07;;;9.87;;
1721;SDS011;858;53.190;8.596;2023-07-09T06:35:19;12.13;;;10.27;;
1721;SDS011;858;53.190;8.596;2023-07-09T06:37:46;11.83;;;10.60;;
1721;SDS011;858;53.190;8.596;2023-07-09T06:40:12;11.20;;;10.07;;
1721;SDS011;858;53.190;8.596;2023-07-09T06:42:38;10.40;;;9.30;;
1721;SDS011;858;53.190;8.596;2023-07-09T06:45:05;10.20;;;9.27;;
1721;SDS011;858;53.190;8.596;2023-07-09T06:47:33;10.30;;;9.40;;
1721;SDS011;858;53.190;8.596;2023-07-09T06:50:00;9.93;;;9.13;;
1721;SDS011;858;53.190;8.596;2023-07-09T06:52:26;10.50;;;9.60;;
1721;SDS011;858;53.190;8.596;2023-07-09T06:54:52;10.33;;;9.50;;
1721;SDS011;858;53.190;8.596;2023-07-09T06:57:18;9.83;;;8.93;;
1721;SDS011;858;53.190;8.596;2023-07-09T06:59:45;11.53;;;10.50;;
1721;SDS011;858;53.190;8.596;2023-07-09T07:02:11;10.97;;;9.90;;
1721;SDS011;858;53.190;8.596;2023-07-09T07:04:39;13.13;;;9.93;;
1721;SDS011;858;53.190;8.596;2023-07-09T07:07:06;12.40;;;9.77;;
1721;SDS011;858;53.190;8.596;2023-07-09T07:09:34;10.40;;;9.40;;
1721;SDS011;858;53.190;8.596;2023-07-09T07:12:01;11.50;;;10.37;;
1721;SDS011;858;53.190;8.596;2023-07-09T07:14:27;10.57;;;8.93;;
1721;SDS011;858;53.190;8.596;2023-07-09T07:16:55;10.90;;;9.90;;
1721;SDS011;858;53.190;8.596;2023-07-09T07:19:21;11.37;;;10.30;;
1721;SDS011;858;53.190;8.596;2023-07-09T07:21:49;9.40;;;8.33;;
1721;SDS011;858;53.190;8.596;2023-07-09T07:24:15;12.30;;;10.30;;
1721;SDS011;858;53.190;8.596;2023-07-09T07:26:41;10.27;;;8.80;;
1721;SDS011;858;53.190;8.596;2023-07-09T07:29:08;11.60;;;10.40;;
1721;SDS011;858;53.190;8.596;2023-07-09T07:31:34;10.77;;;9.07;;
1721;SDS011;858;53.190;8.596;2023-07-09T07:34:00;10.10;;;9.17;;
1721;SDS011;858;53.190;8.596;2023-07-09T07:36:27;11.07;;;9.97;;
1721;SDS011;858;53.190;8.596;2023-07-09T07:38:55;10.03;;;9.23;;
1721;SDS011;858;53.190;8.596;2023-07-09T07:41:21;10.13;;;9.03;;
1721;SDS011;858;53.190;8.596;2023-07-09T07:43:47;10.47;;;9.07;;
1721;SDS011;858;53.190;8.596;2023-07-09T07:46:14;10.07;;;9.10;;
1721;SDS011;858;53.190;8.596;2023-07-09T07:48:40;11.03;;;10.00;;
1721;SDS011;858;53.190;8.596;2023-07-09T07:51:06;10.10;;;9.10;;
1721;SDS011;858;53.190;8.596;2023-07-09T07:53:33;10.63;;;9.60;;
1721;SDS011;858;53.190;8.596;2023-07-09T07:56:00;9.93;;;9.13;;
1721;SDS011;858;53.190;8.596;2023-07-09T07:58:28;9.60;;;8.70;;
1721;SDS011;858;53.190;8.596;2023-07-09T08:00:54;10.13;;;9.27;;
1721;SDS011;858;53.190;8.596;2023-07-09T08:03:21;10.10;;;9.20;;
1721;SDS011;858;53.190;8.596;2023-07-09T08:05:48;11.37;;;10.33;;
1721;SDS011;858;53.190;8.596;2023-07-09T08:08:15;9.77;;;8.80;;
1721;SDS011;858;53.190;8.596;2023-07-09T08:10:42;10.30;;;9.40;;
1721;SDS011;858;53.190;8.596;2023-07-09T08:13:10;10.73;;;9.63;;
1721;SDS011;858;53.190;8.596;2023-07-09T08:15:36;10.63;;;9.60;;
1721;SDS011;858;53.190;8.596;2023-07-09T08:18:03;11.30;;;10.30;;
1721;SDS011;858;53.190;8.596;2023-07-09T08:20:29;13.53;;;9.40;;
1721;SDS011;858;53.190;8.596;2023-07-09T08:22:58;13.43;;;11.40;;
1721;SDS011;858;53.190;8.596;2023-07-09T08:25:24;12.67;;;11.47;;
1721;SDS011;858;53.190;8.596;2023-07-09T08:27:50;13.70;;;11.40;;
1721;SDS011;858;53.190;8.596;2023-07-09T08:30:18;13.97;;;11.93;;
1721;SDS011;858;53.190;8.596;2023-07-09T08:32:45;12.60;;;11.30;;
1721;SDS011;858;53.190;8.596;2023-07-09T08:35:11;13.50;;;11.97;;
1721;SDS011;858;53.190;8.596;2023-07-09T08:37:37;11.63;;;10.53;;
1721;SDS011;858;53.190;8.596;2023-07-09T08:40:04;14.20;;;11.47;;
1721;SDS011;858;53.190;8.596;2023-07-09T08:42:33;10.93;;;9.83;;
1721;SDS011;858;53.190;8.596;2023-07-09T08:45:10;17.70;;;10.87;;
1721;SDS011;858;53.190;8.596;2023-07-09T08:47:41;10.33;;;9.20;;
1721;SDS011;858;53.190;8.596;2023-07-09T08:50:09;14.30;;;10.50;;
1721;SDS011;858;53.190;8.596;2023-07-09T08:52:37;15.43;;;10.37;;
1721;SDS011;858;53.190;8.596;2023-07-09T08:55:06;11.70;;;9.67;;
1721;SDS011;858;53.190;8.596;2023-07-09T08:57:34;11.10;;;9.90;;
1721;SDS011;858;53.190;8.596;2023-07-09T09:00:04;11.63;;;9.27;;
1721;SDS011;858;53.190;8.596;2023-07-09T09:02:33;11.40;;;9.90;;
1721;SDS011;858;53.190;8.596;2023-07-09T09:05:04;11.20;;;9.43;;
1721;SDS011;858;53.190;8.596;2023-07-09T09:07:37;10.10;;;9.00;;
1721;SDS011;858;53.190;8.596;2023-07-09T09:10:04;15.90;;;9.97;;
1721;SDS011;858;53.190;8.596;2023-07-09T09:12:33;15.73;;;9.83;;
1721;SDS011;858;53.190;8.596;2023-07-09T09:15:03;10.20;;;8.93;;
1721;SDS011;858;53.190;8.596;2023-07-09T09:17:32;10.27;;;9.27;;
1721;SDS011;858;53.190;8.596;2023-07-09T09:19:59;12.37;;;9.90;;
1721;SDS011;858;53.190;8.596;2023-07-09T09:22:27;12.23;;;10.13;;
1721;SDS011;858;53.190;8.596;2023-07-09T09:24:57;14.40;;;10.00;;
1721;SDS011;858;53.190;8.596;2023-07-09T09:27:24;12.10;;;10.97;;
1721;SDS011;858;53.190;8.596;2023-07-09T09:29:51;10.67;;;9.67;;
1721;SDS011;858;53.190;8.596;2023-07-09T09:32:21;10.90;;;9.87;;
1721;SDS011;858;53.190;8.596;2023-07-09T09:34:49;14.07;;;9.37;;
1721;SDS011;858;53.190;8.596;2023-07-09T09:37:15;10.93;;;9.90;;
1721;SDS011;858;53.190;8.596;2023-07-09T09:39:51;10.57;;;9.63;;
1721;SDS011;858;53.190;8.596;2023-07-09T09:42:18;9.70;;;8.63;;
1721;SDS011;858;53.190;8.596;2023-07-09T09:44:45;10.40;;;9.33;;
1721;SDS011;858;53.190;8.596;2023-07-09T09:47:12;9.53;;;8.83;;
1721;SDS011;858;53.190;8.596;2023-07-09T09:49:38;10.00;;;8.80;;
1721;SDS011;858;53.190;8.596;2023-07-09T09:52:10;12.00;;;8.60;;
1721;SDS011;858;53.190;8.596;2023-07-09T09:54:39;9.87;;;8.90;;
1721;SDS011;858;53.190;8.596;2023-07-09T09:57:14;11.90;;;10.60;;
1721;SDS011;858;53.190;8.596;2023-07-09T09:59:42;9.10;;;8.30;;
1721;SDS011;858;53.190;8.596;2023-07-09T10:02:13;9.13;;;8.43;;
1721;SDS011;858;53.190;8.596;2023-07-09T10:04:41;11.07;;;10.17;;
1721;SDS011;858;53.190;8.596;2023-07-09T10:07:11;10.50;;;9.40;;
1721;SDS011;858;53.190;8.596;2023-07-09T10:09:43;9.03;;;8.33;;
1721;SDS011;858;53.190;8.596;2023-07-09T10:12:15;10.07;;;8.93;;
1721;SDS011;858;53.190;8.596;2023-07-09T10:14:47;10.03;;;9.10;;
1721;SDS011;858;53.190;8.596;2023-07-09T10:17:18;10.17;;;9.27;;
1721;SDS011;858;53.190;8.596;2023-07-09T10:19:51;9.43;;;8.60;;
1721;SDS011;858;53.190;8.596;2023-07-09T10:22:21;9.73;;;8.90;;
1721;SDS011;858;53.190;8.596;2023-07-09T10:24:51;8.90;;;8.20;;
1721;SDS011;858;53.190;8.596;2023-07-09T10:27:22;9.80;;;9.00;;
1721;SDS011;858;53.190;8.596;2023-07-09T10:30:09;9.37;;;8.60;;
1721;SDS011;858;53.190;8.596;2023-07-09T10:32:42;9.97;;;9.17;;
1721;SDS011;858;53.190;8.596;2023-07-09T10:35:15;9.60;;;8.80;;
1721;SDS011;858;53.190;8.596;2023-07-09T10:37:49;10.40;;;9.40;;
1721;SDS011;858;53.190;8.596;2023-07-09T10:40:23;9.50;;;8.60;;
1721;SDS011;858;53.190;8.596;2023-07-09T10:42:54;8.90;;;8.03;;
1721;SDS011;858;53.190;8.596;2023-07-09T10:45:23;9.60;;;8.70;;
1721;SDS011;858;53.190;8.596;2023-07-09T10:47:53;10.00;;;9.10;;
1721;SDS011;858;53.190;8.596;2023-07-09T10:50:23;8.53;;;7.70;;
1721;SDS011;858;53.190;8.596;2023-07-09T10:52:53;9.40;;;8.70;;
1721;SDS011;858;53.190;8.596;2023-07-09T10:55:22;9.50;;;8.57;;
1721;SDS011;858;53.190;8.596;2023-07-09T10:57:54;9.30;;;8.50;;
1721;SDS011;858;53.190;8.596;2023-07-09T11:00:22;9.97;;;9.10;;
1721;SDS011;858;53.190;8.596;2023-07-09T11:02:50;9.57;;;8.27;;
1721;SDS011;858;53.190;8.596;2023-07-09T11:05:20;9.40;;;8.47;;
1721;SDS011;858;53.190;8.596;2023-07-09T11:07:47;10.63;;;8.87;;
1721;SDS011;858;53.190;8.596;2023-07-09T11:10:17;9.70;;;8.80;;
1721;SDS011;858;53.190;8.596;2023-07-09T11:12:46;9.50;;;8.60;;
1721;SDS011;858;53.190;8.596;2023-07-09T11:15:18;10.47;;;9.37;;
1721;SDS011;858;53.190;8.596;2023-07-09T11:17:46;9.50;;;8.70;;
1721;SDS011;858;53.190;8.596;2023-07-09T11:20:18;10.23;;;9.10;;
1721;SDS011;858;53.190;8.596;2023-07-09T11:22:50;10.53;;;9.20;;
1721;SDS011;858;53.190;8.596;2023-07-09T11:25:26;12.47;;;9.90;;
1721;SDS011;858;53.190;8.596;2023-07-09T11:27:53;11.10;;;10.00;;
1721;SDS011;858;53.190;8.596;2023-07-09T11:30:23;9.00;;;8.20;;
1721;SDS011;858;53.190;8.596;2023-07-09T11:32:54;10.03;;;9.13;;
1721;SDS011;858;53.190;8.596;2023-07-09T11:35:23;13.00;;;9.80;;
1721;SDS011;858;53.190;8.596;2023-07-09T11:37:49;10.27;;;9.30;;
1721;SDS011;858;53.190;8.596;2023-07-09T11:40:19;9.93;;;8.97;;
1721;SDS011;858;53.190;8.596;2023-07-09T11:42:50;10.97;;;9.77;;
1721;SDS011;858;53.190;8.596;2023-07-09T11:45:18;9.83;;;9.03;;
1721;SDS011;858;53.190;8.596;2023-07-09T11:47:49;15.87;;;8.80;;
1721;SDS011;858;53.190;8.596;2023-07-09T11:50:21;9.93;;;9.07;;
1721;SDS011;858;53.190;8.596;2023-07-09T11:52:51;9.80;;;9.00;;
1721;SDS011;858;53.190;8.596;2023-07-09T11:55:20;10.00;;;9.10;;
1721;SDS011;858;53.190;8.596;2023-07-09T11:57:47;11.60;;;9.63;;
1721;SDS011;858;53.190;8.596;2023-07-09T12:00:14;10.60;;;9.00;;
1721;SDS011;858;53.190;8.596;2023-07-09T12:02:41;9.97;;;9.03;;
1721;SDS011;858;53.190;8.596;2023-07-09T12:05:08;9.70;;;8.70;;
1721;SDS011;858;53.190;8.596;2023-07-09T12:07:35;10.43;;;9.43;;
1721;SDS011;858;53.190;8.596;2023-07-09T12:10:03;10.00;;;8.90;;
1721;SDS011;858;53.190;8.596;2023-07-09T12:12:35;9.77;;;8.77;;
1721;SDS011;858;53.190;8.596;2023-07-09T12:15:05;11.07;;;10.10;;
1721;SDS011;858;53.190;8.596;2023-07-09T12:17:31;9.30;;;8.50;;
1721;SDS011;858;53.190;8.596;2023-07-09T12:19:59;10.47;;;9.53;;
1721;SDS011;858;53.190;8.596;2023-07-09T12:22:26;9.87;;;9.07;;
1721;SDS011;858;53.190;8.596;2023-07-09T12:24:53;9.80;;;8.97;;
1721;SDS011;858;53.190;8.596;2023-07-09T12:27:22;9.53;;;8.77;;
1721;SDS011;858;53.190;8.596;2023-07-09T12:29:50;9.87;;;8.70;;
1721;SDS011;858;53.190;8.596;2023-07-09T12:32:17;9.60;;;8.73;;
1721;SDS011;858;53.190;8.596;2023-07-09T12:34:49;8.70;;;8.00;;
1721;SDS011;858;53.190;8.596;2023-07-09T12:37:16;9.10;;;8.30;;
1721;SDS011;858;53.190;8.596;2023-07-09T12:39:45;9.67;;;8.67;;
1721;SDS011;858;53.190;8.596;2023-07-09T12:42:14;8.67;;;7.83;;
1721;SDS011;858;53.190;8.596;2023-07-09T12:44:41;9.40;;;8.60;;
1721;SDS011;858;53.190;8.596;2023-07-09T12:47:12;10.17;;;8.43;;
1721;SDS011;858;53.190;8.596;2023-07-09T12:49:39;8.30;;;7.60;;
1721;SDS011;858;53.190;8.596;2023-07-09T12:52:08;9.47;;;8.50;;
1721;SDS011;858;53.190;8.596;2023-07-09T12:54:35;10.73;;;8.63;;
1721;SDS011;858;53.190;8.596;2023-07-09T12:57:03;10.57;;;9.50;;
1721;SDS011;858;53.190;8.596;2023-07-09T12:59:37;11.57;;;8.73;;
1721;SDS011;858;53.190;8.596;2023-07-09T13:02:06;9.77;;;8.30;;
1721;SDS011;858;53.190;8.596;2023-07-09T13:04:37;10.47;;;7.73;;
1721;SDS011;858;53.190;8.596;2023-07-09T13:07:04;8.53;;;7.80;;
1721;SDS011;858;53.190;8.596;2023-07-09T13:09:30;13.00;;;8.30;;
1721;SDS011;858;53.190;8.596;2023-07-09T13:11:57;8.47;;;7.77;;
1721;SDS011;858;53.190;8.596;2023-07-09T13:14:26;11.53;;;9.27;;
1721;SDS011;858;53.190;8.596;2023-07-09T13:16:53;11.53;;;8.73;;
1721;SDS011;858;53.190;8.596;2023-07-09T13:19:28;13.83;;;8.83;;
1721;SDS011;858;53.190;8.596;2023-07-09T13:21:55;11.70;;;8.67;;
1721;SDS011;858;53.190;8.596;2023-07-09T13:24:22;9.70;;;8.80;;
1721;SDS011;858;53.190;8.596;2023-07-09T13:26:48;7.80;;;7.10;;
1721;SDS011;858;53.190;8.596;2023-07-09T13:29:17;9.30;;;7.80;;
1721;SDS011;858;53.190;8.596;2023-07-09T13:31:46;7.93;;;7.23;;
1721;SDS011;858;53.190;8.596;2023-07-09T13:34:19;9.33;;;8.20;;
1721;SDS011;858;53.190;8.596;2023-07-09T13:36:56;8.63;;;7.80;;
1721;SDS011;858;53.190;8.596;2023-07-09T13:39:23;9.90;;;8.67;;
1721;SDS011;858;53.190;8.596;2023-07-09T13:41:50;15.33;;;8.40;;
1721;SDS011;858;53.190;8.596;2023-07-09T13:44:20;9.63;;;8.20;;
1721;SDS011;858;53.190;8.596;2023-07-09T13:46:48;8.27;;;7.63;;
1721;SDS011;858;53.190;8.596;2023-07-09T13:49:15;9.97;;;9.13;;
1721;SDS011;858;53.190;8.596;2023-07-09T13:51:43;9.00;;;8.10;;
1721;SDS011;858;53.190;8.596;2023-07-09T13:54:13;8.63;;;7.93;;
1721;SDS011;858;53.190;8.596;2023-07-09T13:56:40;8.90;;;7.40;;
1721;SDS011;858;53.190;8.596;2023-07-09T13:59:11;8.90;;;8.00;;
1721;SDS011;858;53.190;8.596;2023-07-09T14:01:38;8.47;;;7.77;;
1721;SDS011;858;53.190;8.596;2023-07-09T14:04:08;8.37;;;7.57;;
1721;SDS011;858;53.190;8.596;2023-07-09T14:06:35;9.03;;;8.03;;
1721;SDS011;858;53.190;8.596;2023-07-09T14:09:02;9.30;;;8.40;;
1721;SDS011;858;53.190;8.596;2023-07-09T14:11:28;8.73;;;7.93;;
1721;SDS011;858;53.190;8.596;2023-07-09T14:13:55;7.90;;;6.70;;
1721;SDS011;858;53.190;8.596;2023-07-09T14:16:22;8.63;;;7.13;;
1721;SDS011;858;53.190;8.596;2023-07-09T14:18:49;9.00;;;8.20;;
1721;SDS011;858;53.190;8.596;2023-07-09T14:21:20;8.40;;;7.60;;
1721;SDS011;858;53.190;8.596;2023-07-09T14:23:47;8.97;;;8.17;;
1721;SDS011;858;53.190;8.596;2023-07-09T14:26:13;10.37;;;8.70;;
1721;SDS011;858;53.190;8.596;2023-07-09T14:28:39;9.03;;;8.23;;
1721;SDS011;858;53.190;8.596;2023-07-09T14:31:09;10.07;;;8.10;;
1721;SDS011;858;53.190;8.596;2023-07-09T14:33:39;7.90;;;7.30;;
1721;SDS011;858;53.190;8.596;2023-07-09T14:36:06;8.53;;;7.63;;
1721;SDS011;858;53.190;8.596;2023-07-09T14:38:34;13.20;;;8.83;;
1721;SDS011;858;53.190;8.596;2023-07-09T14:41:00;9.07;;;8.27;;
1721;SDS011;858;53.190;8.596;2023-07-09T14:43:30;9.10;;;8.23;;
1721;SDS011;858;53.190;8.596;2023-07-09T14:45:56;9.57;;;8.67;;
1721;SDS011;858;53.190;8.596;2023-07-09T14:48:22;8.50;;;7.90;;
1721;SDS011;858;53.190;8.596;2023-07-09T14:50:49;10.00;;;9.00;;
1721;SDS011;858;53.190;8.596;2023-07-09T14:53:16;8.63;;;7.83;;
1721;SDS011;858;53.190;8.596;2023-07-09T14:55:44;8.80;;;8.00;;
1721;SDS011;858;53.190;8.596;2023-07-09T14:58:14;9.70;;;8.80;;
1721;SDS011;858;53.190;8.596;2023-07-09T15:00:41;11.40;;;8.43;;
1721;SDS011;858;53.190;8.596;2023-07-09T15:03:11;8.50;;;7.77;;
1721;SDS011;858;53.190;8.596;2023-07-09T15:05:38;11.37;;;8.10;;
1721;SDS011;858;53.190;8.596;2023-07-09T15:08:10;10.20;;;8.87;;
1721;SDS011;858;53.190;8.596;2023-07-09T15:10:39;9.57;;;8.40;;
1721;SDS011;858;53.190;8.596;2023-07-09T15:13:10;9.87;;;7.87;;
1721;SDS011;858;53.190;8.596;2023-07-09T15:15:37;10.03;;;9.13;;
1721;SDS011;858;53.190;8.596;2023-07-09T15:18:08;12.50;;;9.40;;
1721;SDS011;858;53.190;8.596;2023-07-09T15:20:35;9.93;;;8.30;;
1721;SDS011;858;53.190;8.596;2023-07-09T15:23:02;9.83;;;8.23;;
1721;SDS011;858;53.190;8.596;2023-07-09T15:25:29;9.40;;;8.50;;